TAF for OAKB provided by aerobaticsweb.org
Current time: Monday, 25 Jan, 2021, 16:37 UTC
(This may take a minute, please be patient)


The most recent TAF forecast from OAKB in our system was generated at
2021/01/25 12:05
The forecast is:
OAKB 2021/01/25 12:05
TAF OAKB 251105Z 2512/2612 VRB02KT 8000 NSC
BECMG 2514/2516 3000 FU
BECMG 2517/2519 1200
BECMG 2522/2524 4000
BECMG 2604/2606 8000 NSW



access provided by Dr. Guenther Eichhorn at aerobaticsweb.org